createdAt,value
2023-01-08T00:00:13.183Z,-4.78
2023-01-08T00:01:13.144Z,-4.94
2023-01-08T00:02:13.123Z,-4.78
2023-01-08T00:03:13.286Z,-4.61
2023-01-08T00:04:13.199Z,-4.61
2023-01-08T00:05:13.130Z,-5.06
2023-01-08T00:06:13.130Z,-4.5
2023-01-08T00:07:13.144Z,-4.61
2023-01-08T00:08:13.268Z,-4.5
2023-01-08T00:09:13.127Z,-4.33
2023-01-08T00:10:13.140Z,-4.78
2023-01-08T00:11:13.129Z,-4.33
2023-01-08T00:12:13.148Z,-4.22
2023-01-08T00:13:13.140Z,-4.33
2023-01-08T00:14:13.155Z,-4.94
2023-01-08T00:15:13.134Z,-4.78
2023-01-08T00:16:13.197Z,-3.89
2023-01-08T00:17:13.136Z,-4.22
2023-01-08T00:18:13.140Z,-3.61
2023-01-08T00:19:13.150Z,-4.06
2023-01-08T00:20:13.141Z,-3.61
2023-01-08T00:21:13.151Z,-3.61
2023-01-08T00:22:13.165Z,-3.61
2023-01-08T00:23:13.182Z,-3.61
2023-01-08T00:24:13.267Z,-3.44
2023-01-08T00:25:13.145Z,-3.72
2023-01-08T00:26:13.157Z,-4.06
2023-01-08T00:27:13.163Z,-3.89
2023-01-08T00:28:13.160Z,-3.89
2023-01-08T00:29:13.178Z,-3.72
2023-01-08T00:30:13.203Z,-3.28
2023-01-08T00:31:13.199Z,-3.17
2023-01-08T00:32:13.177Z,-3.06
2023-01-08T00:33:13.163Z,-3.44
2023-01-08T00:34:13.171Z,-3.06
2023-01-08T00:35:13.168Z,-3.44
2023-01-08T00:36:13.170Z,-3.28
2023-01-08T00:37:13.173Z,-3.61
2023-01-08T00:38:13.174Z,-3.44
2023-01-08T00:39:13.161Z,-3.28
2023-01-08T00:40:13.278Z,-3.28
2023-01-08T00:41:13.228Z,-3.06
2023-01-08T00:42:13.172Z,-3.44
2023-01-08T00:43:13.169Z,-3.17
2023-01-08T00:44:13.166Z,-3.17
2023-01-08T00:45:13.164Z,-2.89
2023-01-08T00:46:13.242Z,-2.89
2023-01-08T00:47:13.173Z,-3.61
2023-01-08T00:48:13.175Z,-3.28
2023-01-08T00:49:13.178Z,-3.44
2023-01-08T00:50:13.186Z,-4.06
2023-01-08T00:51:13.178Z,-4.22
2023-01-08T00:52:13.190Z,-4.06
2023-01-08T00:53:13.193Z,-4.06
2023-01-08T00:54:13.184Z,-4.33
2023-01-08T00:55:13.180Z,-4.33
2023-01-08T00:56:13.291Z,-4.61
2023-01-08T00:57:13.187Z,-4.33
2023-01-08T00:58:13.201Z,-4.5
2023-01-08T00:59:13.187Z,-4.78
2023-01-08T01:00:13.186Z,-4.06
2023-01-08T01:01:13.389Z,-4.5
2023-01-08T01:02:13.282Z,-4.33
2023-01-08T01:03:13.194Z,-4.06
2023-01-08T01:04:13.222Z,-4.06
2023-01-08T01:05:13.183Z,-4.61
2023-01-08T01:06:13.190Z,-4.06
2023-01-08T01:07:13.190Z,-4.33
2023-01-08T01:08:13.185Z,-3.89
2023-01-08T01:09:13.183Z,-4.22
2023-01-08T01:10:13.203Z,-3.61
2023-01-08T01:11:13.193Z,-3.72
2023-01-08T01:12:13.306Z,-3.61
2023-01-08T01:13:13.205Z,-3.61
2023-01-08T01:14:13.189Z,-3.61
2023-01-08T01:15:13.185Z,-3.89
2023-01-08T01:16:13.255Z,-4.06
2023-01-08T01:17:13.202Z,-4.06
2023-01-08T01:18:13.212Z,-4.06
2023-01-08T01:19:13.207Z,-3.89
2023-01-08T01:20:13.204Z,-4.22
2023-01-08T01:21:13.199Z,-3.89
2023-01-08T01:22:13.254Z,-4.22
2023-01-08T01:23:13.208Z,-4.33
2023-01-08T01:24:13.203Z,-4.5
2023-01-08T01:25:13.202Z,-4.78
2023-01-08T01:26:13.210Z,-4.33
2023-01-08T01:27:13.260Z,-4.33
2023-01-08T01:28:13.235Z,-4.33
2023-01-08T01:29:13.205Z,-4.33
2023-01-08T01:30:13.205Z,-4.78
2023-01-08T01:31:13.208Z,-4.61
2023-01-08T01:32:13.248Z,-4.5
2023-01-08T01:33:13.232Z,-4.5
2023-01-08T01:34:13.213Z,-4.33
2023-01-08T01:35:13.213Z,-4.33
2023-01-08T01:36:13.205Z,-4.5
2023-01-08T01:37:13.231Z,-4.33
2023-01-08T01:38:13.217Z,-4.61
2023-01-08T01:39:13.223Z,-4.5
2023-01-08T01:40:13.202Z,-4.78
2023-01-08T01:41:13.212Z,-4.33
2023-01-08T01:42:13.228Z,-4.5
2023-01-08T01:43:13.292Z,-4.61
2023-01-08T01:44:13.349Z,-4.33
2023-01-08T01:45:13.211Z,-4.33
2023-01-08T01:46:13.268Z,-4.33
2023-01-08T01:47:13.218Z,-4.06
2023-01-08T01:48:13.288Z,-4.22
2023-01-08T01:49:13.236Z,-4.22
2023-01-08T01:50:13.213Z,-4.22
2023-01-08T01:51:13.216Z,-4.06
2023-01-08T01:52:13.231Z,-4.06
2023-01-08T01:53:13.224Z,-4.06
2023-01-08T01:54:13.222Z,-4.06
2023-01-08T01:55:13.227Z,-4.06
2023-01-08T01:56:13.223Z,-4.06
2023-01-08T01:57:13.218Z,-4.33
2023-01-08T01:58:13.224Z,-4.33
2023-01-08T01:59:13.243Z,-4.33
2023-01-08T02:00:13.332Z,-4.5
2023-01-08T02:01:13.420Z,-4.78
2023-01-08T02:02:13.338Z,-4.33
2023-01-08T02:03:13.230Z,-4.61
2023-01-08T02:04:13.360Z,-4.33
2023-01-08T02:05:13.220Z,-4.22
2023-01-08T02:06:13.222Z,-4.06
2023-01-08T02:07:13.220Z,-3.89
2023-01-08T02:08:13.215Z,-3.89
2023-01-08T02:09:13.220Z,-4.33
2023-01-08T02:10:13.235Z,-4.22
2023-01-08T02:11:13.229Z,-4.5
2023-01-08T02:12:13.237Z,-4.33
2023-01-08T02:13:13.212Z,-4.33
2023-01-08T02:14:13.282Z,-4.94
2023-01-08T02:15:13.226Z,-4.78
2023-01-08T02:16:13.341Z,-4.5
2023-01-08T02:17:13.223Z,-4.5
2023-01-08T02:18:13.227Z,-4.61
2023-01-08T02:19:13.227Z,-4.78
2023-01-08T02:20:13.228Z,-4.61
2023-01-08T02:21:13.234Z,-4.78
2023-01-08T02:22:13.213Z,-4.61
2023-01-08T02:23:13.307Z,-4.61
2023-01-08T02:24:13.232Z,-5.06
2023-01-08T02:25:13.319Z,-4.5
2023-01-08T02:26:13.235Z,-4.33
2023-01-08T02:27:13.250Z,-4.22
2023-01-08T02:28:13.231Z,-4.33
2023-01-08T02:29:13.229Z,-4.33
2023-01-08T02:30:13.235Z,-4.06
2023-01-08T02:31:13.387Z,-4.06
2023-01-08T02:32:13.247Z,-4.33
2023-01-08T02:33:13.224Z,-4.06
2023-01-08T02:34:13.239Z,-4.61
2023-01-08T02:35:13.223Z,-4.33
2023-01-08T02:36:13.232Z,-4.33
2023-01-08T02:37:13.265Z,-4.5
2023-01-08T02:38:13.232Z,-4.33
2023-01-08T02:39:13.225Z,-4.33
2023-01-08T02:40:13.296Z,-4.5
2023-01-08T02:41:13.231Z,-4.33
2023-01-08T02:42:13.248Z,-4.06
2023-01-08T02:43:13.228Z,-4.22
2023-01-08T02:44:13.234Z,-3.89
2023-01-08T02:45:13.227Z,-3.89
2023-01-08T02:46:13.294Z,-4.5
2023-01-08T02:47:13.235Z,-4.33
2023-01-08T02:48:13.339Z,-4.5
2023-01-08T02:49:13.251Z,-4.61
2023-01-08T02:50:13.236Z,-5.06
2023-01-08T02:51:13.223Z,-4.94
2023-01-08T02:52:13.245Z,-4.94
2023-01-08T02:53:13.221Z,-5.39
2023-01-08T02:54:13.233Z,-5.22
2023-01-08T02:55:13.230Z,-4.78
2023-01-08T02:56:13.251Z,-4.94
2023-01-08T02:57:13.294Z,-5.06
2023-01-08T02:58:13.225Z,-5.22
2023-01-08T02:59:13.250Z,-4.94
2023-01-08T03:00:13.227Z,-4.94
2023-01-08T03:01:13.434Z,-4.94
2023-01-08T03:02:13.417Z,-4.78
2023-01-08T03:03:13.277Z,-5.06
2023-01-08T03:04:13.441Z,-4.94
2023-01-08T03:05:13.233Z,-4.78
2023-01-08T03:06:13.249Z,-4.5
2023-01-08T03:07:13.233Z,-4.61
2023-01-08T03:08:13.246Z,-4.33
2023-01-08T03:09:13.226Z,-4.5
2023-01-08T03:10:13.227Z,-4.33
2023-01-08T03:11:13.239Z,-4.33
2023-01-08T03:12:13.245Z,-4.5
2023-01-08T03:13:13.237Z,-4.33
2023-01-08T03:14:13.251Z,-4.33
2023-01-08T03:15:13.235Z,-4.5
2023-01-08T03:16:13.309Z,-4.22
2023-01-08T03:17:13.249Z,-4.33
2023-01-08T03:18:13.257Z,-4.22
2023-01-08T03:19:13.244Z,-4.22
2023-01-08T03:20:13.362Z,-4.06
2023-01-08T03:21:13.258Z,-4.61
2023-01-08T03:22:13.273Z,-4.06
2023-01-08T03:23:13.255Z,-3.89
2023-01-08T03:24:13.263Z,-3.89
2023-01-08T03:25:13.283Z,-3.89
2023-01-08T03:26:13.250Z,-4.33
2023-01-08T03:27:13.266Z,-4.22
2023-01-08T03:28:13.262Z,-3.61
2023-01-08T03:29:13.268Z,-3.89
2023-01-08T03:30:13.271Z,-3.72
2023-01-08T03:31:13.315Z,-4.5
2023-01-08T03:32:13.285Z,-4.33
2023-01-08T03:33:13.341Z,-4.33
2023-01-08T03:34:13.282Z,-4.33
2023-01-08T03:35:13.297Z,-4.33
2023-01-08T03:36:13.407Z,-4.33
2023-01-08T03:37:13.295Z,-4.33
2023-01-08T03:38:13.328Z,-4.5
2023-01-08T03:39:13.282Z,-4.61
2023-01-08T03:40:13.304Z,-4.94
2023-01-08T03:41:13.310Z,-4.61
2023-01-08T03:42:13.306Z,-4.61
2023-01-08T03:43:13.298Z,-4.61
2023-01-08T03:44:13.318Z,-4.61
2023-01-08T03:45:13.306Z,-4.61
2023-01-08T03:46:13.310Z,-4.78
2023-01-08T03:47:13.300Z,-4.94
2023-01-08T03:48:13.301Z,-4.94
2023-01-08T03:49:13.293Z,-4.78
2023-01-08T03:50:13.303Z,-4.61
2023-01-08T03:51:13.302Z,-4.78
2023-01-08T03:52:13.455Z,-4.22
2023-01-08T03:53:13.311Z,-3.89
2023-01-08T03:54:13.311Z,-3.89
2023-01-08T03:55:13.330Z,-4.5
2023-01-08T03:56:13.315Z,-4.33
2023-01-08T03:57:13.315Z,-4.06
2023-01-08T03:58:13.346Z,-4.33
2023-01-08T03:59:13.321Z,-4.5
2023-01-08T04:00:13.323Z,-4.5
2023-01-08T04:01:13.489Z,-4.5
2023-01-08T04:02:13.499Z,-4.5
2023-01-08T04:03:13.330Z,-4.61
2023-01-08T04:04:13.352Z,-4.5
2023-01-08T04:05:13.342Z,-4.33
2023-01-08T04:06:13.328Z,-4.61
2023-01-08T04:07:13.336Z,-4.33
2023-01-08T04:08:13.449Z,-4.78
2023-01-08T04:09:13.337Z,-4.33
2023-01-08T04:10:13.340Z,-4.5
2023-01-08T04:11:13.327Z,-4.5
2023-01-08T04:12:13.336Z,-4.5
2023-01-08T04:13:13.355Z,-4.61
2023-01-08T04:14:13.340Z,-4.5
2023-01-08T04:15:13.341Z,-4.5
2023-01-08T04:16:13.402Z,-4.33
2023-01-08T04:17:13.354Z,-4.22
2023-01-08T04:18:13.345Z,-4.5
2023-01-08T04:19:13.447Z,-4.94
2023-01-08T04:20:13.347Z,-4.5
2023-01-08T04:21:13.364Z,-4.94
2023-01-08T04:22:13.368Z,-4.78
2023-01-08T04:23:13.373Z,-4.94
2023-01-08T04:24:13.470Z,-4.78
2023-01-08T04:25:13.353Z,-4.78
2023-01-08T04:26:13.367Z,-4.61
2023-01-08T04:27:13.357Z,-4.61
2023-01-08T04:28:13.363Z,-4.94
2023-01-08T04:29:13.368Z,-5.06
2023-01-08T04:30:13.365Z,-5.06
2023-01-08T04:31:13.416Z,-5.22
2023-01-08T04:32:13.369Z,-5.39
2023-01-08T04:33:13.366Z,-5.22
2023-01-08T04:34:13.368Z,-5.39
2023-01-08T04:35:13.421Z,-5.22
2023-01-08T04:36:13.372Z,-5.39
2023-01-08T04:37:13.373Z,-5.39
2023-01-08T04:38:13.361Z,-5.39
2023-01-08T04:39:13.393Z,-5.39
2023-01-08T04:40:13.484Z,-5.56
2023-01-08T04:41:13.370Z,-5.22
2023-01-08T04:42:13.378Z,-5.72
2023-01-08T04:43:13.380Z,-5.56
2023-01-08T04:44:13.394Z,-5.06
2023-01-08T04:45:13.370Z,-5.22
2023-01-08T04:46:13.426Z,-5.22
2023-01-08T04:47:13.379Z,-5.22
2023-01-08T04:48:13.397Z,-5.39
2023-01-08T04:49:13.401Z,-5.83
2023-01-08T04:50:13.394Z,-5.83
2023-01-08T04:51:13.393Z,-5.22
2023-01-08T04:52:13.391Z,-5.56
2023-01-08T04:53:13.378Z,-5.39
2023-01-08T04:54:13.384Z,-5.39
2023-01-08T04:55:13.393Z,-5.39
2023-01-08T04:56:13.514Z,-5.22
2023-01-08T04:57:13.469Z,-4.94
2023-01-08T04:58:13.386Z,-4.61
2023-01-08T04:59:13.397Z,-4.94
2023-01-08T05:00:13.395Z,-5.06
2023-01-08T05:01:13.510Z,-5.06
2023-01-08T05:02:13.628Z,-5.39
2023-01-08T05:03:13.489Z,-5.22
2023-01-08T05:04:13.415Z,-5.22
2023-01-08T05:05:13.417Z,-5.39
2023-01-08T05:06:13.409Z,-4.94
2023-01-08T05:07:13.401Z,-4.94
2023-01-08T05:08:13.404Z,-5.06
2023-01-08T05:09:13.407Z,-5.06
2023-01-08T05:10:13.425Z,-5.22
2023-01-08T05:11:13.465Z,-5.39
2023-01-08T05:12:13.537Z,-5.22
2023-01-08T05:13:13.413Z,-5.22
2023-01-08T05:14:13.415Z,-4.78
2023-01-08T05:15:13.404Z,-5.56
2023-01-08T05:16:13.441Z,-5.06
2023-01-08T05:17:13.425Z,-5.22
2023-01-08T05:18:13.436Z,-5.22
2023-01-08T05:19:13.434Z,-5.22
2023-01-08T05:20:13.415Z,-5.22
2023-01-08T05:21:13.434Z,-4.78
2023-01-08T05:22:13.422Z,-5.22
2023-01-08T05:23:13.413Z,-4.78
2023-01-08T05:24:13.431Z,-4.78
2023-01-08T05:25:13.424Z,-4.78
2023-01-08T05:26:13.422Z,-5.06
2023-01-08T05:27:13.426Z,-5.22
2023-01-08T05:28:13.455Z,-4.61
2023-01-08T05:29:13.429Z,-4.94
2023-01-08T05:30:13.433Z,-4.78
2023-01-08T05:31:13.479Z,-4.94
2023-01-08T05:32:13.428Z,-5.22
2023-01-08T05:33:13.449Z,-5.39
2023-01-08T05:34:13.439Z,-5.22
2023-01-08T05:35:13.443Z,-5.06
2023-01-08T05:36:13.484Z,-5.22
2023-01-08T05:37:13.439Z,-5.22
2023-01-08T05:38:13.444Z,-5.56
2023-01-08T05:39:13.435Z,-5.56
2023-01-08T05:40:13.445Z,-5.83
2023-01-08T05:41:13.434Z,-6
2023-01-08T05:42:13.440Z,-5.83
2023-01-08T05:43:13.454Z,-5.72
2023-01-08T05:44:13.477Z,-5.83
2023-01-08T05:45:13.447Z,-6
2023-01-08T05:46:13.536Z,-6.11
2023-01-08T05:47:13.459Z,-6
2023-01-08T05:48:13.455Z,-6.11
2023-01-08T05:49:14.654Z,-6.11
2023-01-08T05:50:13.446Z,-6.61
2023-01-08T05:51:13.505Z,-6
2023-01-08T05:52:13.459Z,-6.44
2023-01-08T05:53:13.449Z,-6.44
2023-01-08T05:54:13.455Z,-5.72
2023-01-08T05:55:13.461Z,-5.39
2023-01-08T05:56:13.472Z,-5.39
2023-01-08T05:57:13.441Z,-5.83
2023-01-08T05:58:13.474Z,-5.72
2023-01-08T05:59:13.457Z,-5.72
2023-01-08T06:00:13.585Z,-5.72
2023-01-08T06:01:13.477Z,-6
2023-01-08T06:02:13.461Z,-5.83
2023-01-08T06:03:13.539Z,-5.83
2023-01-08T06:04:13.602Z,-5.72
2023-01-08T06:05:13.450Z,-5.83
2023-01-08T06:06:13.464Z,-5.83
2023-01-08T06:07:13.446Z,-5.72
2023-01-08T06:08:13.457Z,-6
2023-01-08T06:09:13.467Z,-5.56
2023-01-08T06:10:13.465Z,-5.56
2023-01-08T06:11:13.472Z,-5.72
2023-01-08T06:12:13.461Z,-6
2023-01-08T06:13:13.451Z,-6
2023-01-08T06:14:13.478Z,-5.72
2023-01-08T06:15:13.483Z,-5.56
2023-01-08T06:16:13.603Z,-5.39
2023-01-08T06:17:13.468Z,-5.83
2023-01-08T06:18:13.467Z,-6.11
2023-01-08T06:19:13.489Z,-6.11
2023-01-08T06:20:13.469Z,-6.28
2023-01-08T06:21:13.456Z,-6.61
2023-01-08T06:22:13.478Z,-6.28
2023-01-08T06:23:13.473Z,-6.28
2023-01-08T06:24:13.484Z,-6.11
2023-01-08T06:25:13.468Z,-6.11
2023-01-08T06:26:13.481Z,-6.11
2023-01-08T06:27:13.476Z,-6.11
2023-01-08T06:28:13.465Z,-5.72
2023-01-08T06:29:13.479Z,-5.83
2023-01-08T06:30:13.464Z,-6.11
2023-01-08T06:31:13.559Z,-5.83
2023-01-08T06:32:13.604Z,-5.83
2023-01-08T06:33:13.487Z,-5.83
2023-01-08T06:34:13.465Z,-5.72
2023-01-08T06:35:13.473Z,-5.72
2023-01-08T06:36:13.469Z,-5.72
2023-01-08T06:37:13.470Z,-6
2023-01-08T06:38:13.465Z,-6
2023-01-08T06:39:13.491Z,-5.22
2023-01-08T06:40:13.464Z,-5.56
2023-01-08T06:41:13.491Z,-5.22
2023-01-08T06:42:13.467Z,-5.06
2023-01-08T06:43:13.471Z,-5.22
2023-01-08T06:44:13.460Z,-5.22
2023-01-08T06:45:13.463Z,-5.39
2023-01-08T06:46:13.495Z,-5.72
2023-01-08T06:47:13.485Z,-6
2023-01-08T06:48:13.486Z,-5.72
2023-01-08T06:49:13.472Z,-5.83
2023-01-08T06:50:13.468Z,-6.11
2023-01-08T06:51:13.481Z,-6
2023-01-08T06:52:13.467Z,-5.83
2023-01-08T06:53:13.502Z,-6
2023-01-08T06:54:13.685Z,-6
2023-01-08T06:55:13.490Z,-5.72
2023-01-08T06:56:13.488Z,-6
2023-01-08T06:57:13.479Z,-5.72
2023-01-08T06:58:13.514Z,-5.22
2023-01-08T06:59:13.481Z,-5.72
2023-01-08T07:00:13.495Z,-5.72
2023-01-08T07:01:13.570Z,-5.39
2023-01-08T07:02:13.591Z,-5.72
2023-01-08T07:03:13.522Z,-5.72
2023-01-08T07:04:13.604Z,-5.72
2023-01-08T07:05:13.483Z,-5.56
2023-01-08T07:06:13.510Z,-5.83
2023-01-08T07:07:13.539Z,-5.72
2023-01-08T07:08:13.504Z,-5.83
2023-01-08T07:09:13.487Z,-5.56
2023-01-08T07:10:13.509Z,-5.72
2023-01-08T07:11:13.518Z,-6
2023-01-08T07:12:13.511Z,-5.72
2023-01-08T07:13:13.542Z,-5.39
2023-01-08T07:14:13.506Z,-5.39
2023-01-08T07:15:13.535Z,-5.72
2023-01-08T07:16:13.531Z,-5.56
2023-01-08T07:17:13.522Z,-5.56
2023-01-08T07:18:13.536Z,-5.83
2023-01-08T07:19:13.520Z,-5.72
2023-01-08T07:20:13.691Z,-6
2023-01-08T07:21:13.528Z,-6
2023-01-08T07:22:13.531Z,-5.72
2023-01-08T07:23:13.532Z,-5.56
2023-01-08T07:24:13.551Z,-5.72
2023-01-08T07:25:13.529Z,-5.39
2023-01-08T07:26:13.541Z,-5.22
2023-01-08T07:27:13.551Z,-5.39
2023-01-08T07:28:13.545Z,-5.39
2023-01-08T07:29:13.536Z,-5.39
2023-01-08T07:30:24.735Z,-5.22
2023-01-08T07:31:13.616Z,-5.06
2023-01-08T07:32:13.539Z,-5.06
2023-01-08T07:33:13.564Z,-5.22
2023-01-08T07:34:15.220Z,-5.06
2023-01-08T07:35:13.545Z,-5.22
2023-01-08T07:36:13.659Z,-5.22
2023-01-08T07:37:13.533Z,-4.94
2023-01-08T07:38:13.583Z,-4.78
2023-01-08T07:39:13.541Z,-4.78
2023-01-08T07:40:13.611Z,-4.94
2023-01-08T07:41:13.534Z,-4.61
2023-01-08T07:42:13.557Z,-5.22
2023-01-08T07:43:13.559Z,-4.94
2023-01-08T07:44:13.620Z,-4.94
2023-01-08T07:45:13.578Z,-4.61
2023-01-08T07:46:13.572Z,-4.5
2023-01-08T07:47:13.554Z,-4.78
2023-01-08T07:48:13.559Z,-4.94
2023-01-08T07:49:13.552Z,-4.5
2023-01-08T07:50:13.559Z,-4.33
2023-01-08T07:51:13.572Z,-4.33
2023-01-08T07:52:13.691Z,-4.33
2023-01-08T07:53:13.588Z,-4.22
2023-01-08T07:54:13.576Z,-4.06
2023-01-08T07:55:13.566Z,-4.22
2023-01-08T07:56:13.573Z,-4.06
2023-01-08T07:57:13.565Z,-4.06
2023-01-08T07:58:13.579Z,-4.61
2023-01-08T07:59:13.577Z,-4.33
2023-01-08T08:00:13.584Z,-4.78
2023-01-08T08:01:13.611Z,-4.22
2023-01-08T08:02:13.662Z,-4.33
2023-01-08T08:03:13.667Z,-4.22
2023-01-08T08:04:13.564Z,-3.89
2023-01-08T08:05:13.576Z,-3.72
2023-01-08T08:06:13.579Z,-4.06
2023-01-08T08:07:13.593Z,-4.06
2023-01-08T08:08:13.699Z,-3.89
2023-01-08T08:09:13.571Z,-3.89
2023-01-08T08:10:13.598Z,-4.06
2023-01-08T08:11:13.590Z,-3.44
2023-01-08T08:12:13.591Z,-3.44
2023-01-08T08:13:13.588Z,-3.61
2023-01-08T08:14:13.596Z,-3.17
2023-01-08T08:15:13.597Z,-3.28
2023-01-08T08:16:13.750Z,-3.06
2023-01-08T08:17:13.601Z,-3.17
2023-01-08T08:18:13.614Z,-3.06
2023-01-08T08:19:13.609Z,-3.44
2023-01-08T08:20:13.667Z,-3.61
2023-01-08T08:21:13.617Z,-4.22
2023-01-08T08:22:13.680Z,-3.72
2023-01-08T08:23:13.602Z,-3.61
2023-01-08T08:24:13.720Z,-4.06
2023-01-08T08:25:13.616Z,-3.72
2023-01-08T08:26:13.616Z,-3.44
2023-01-08T08:27:13.596Z,-3.44
2023-01-08T08:28:13.614Z,-3.17
2023-01-08T08:29:13.619Z,-3.06
2023-01-08T08:30:13.612Z,-3.06
2023-01-08T08:31:13.653Z,-3.61
2023-01-08T08:32:13.620Z,-3.06
2023-01-08T08:33:13.623Z,-3.72
2023-01-08T08:34:13.640Z,-4.22
2023-01-08T08:35:13.620Z,-4.06
2023-01-08T08:36:13.637Z,-3.89
2023-01-08T08:37:13.632Z,-3.72
2023-01-08T08:38:13.640Z,-3.72
2023-01-08T08:39:13.635Z,-3.61
2023-01-08T08:40:13.741Z,-3.72
2023-01-08T08:41:13.629Z,-3.44
2023-01-08T08:42:13.644Z,-3.06
2023-01-08T08:43:13.643Z,-2.61
2023-01-08T08:44:13.647Z,-3.06
2023-01-08T08:45:13.644Z,-3.06
2023-01-08T08:46:13.679Z,-3.28
2023-01-08T08:47:13.636Z,-3.28
2023-01-08T08:48:13.658Z,-3.17
2023-01-08T08:49:13.642Z,-3.06
2023-01-08T08:50:13.652Z,-3.61
2023-01-08T08:51:13.647Z,-3.28
2023-01-08T08:52:13.643Z,-3.17
2023-01-08T08:53:13.651Z,-3.06
2023-01-08T08:54:13.645Z,-3.17
2023-01-08T08:55:13.669Z,-3.61
2023-01-08T08:56:13.769Z,-3.28
2023-01-08T08:57:13.665Z,-2.89
2023-01-08T08:58:13.659Z,-2.61
2023-01-08T08:59:13.647Z,-2.89
2023-01-08T09:00:13.707Z,-2.61
2023-01-08T09:01:13.683Z,-2.89
2023-01-08T09:02:13.813Z,-2.61
2023-01-08T09:03:13.717Z,-2.61
2023-01-08T09:04:13.663Z,-3.61
2023-01-08T09:05:13.699Z,-2.89
2023-01-08T09:06:13.674Z,-3.06
2023-01-08T09:07:13.667Z,-2.72
2023-01-08T09:08:13.675Z,-2.61
2023-01-08T09:09:13.695Z,-2.44
2023-01-08T09:10:13.679Z,-2.61
2023-01-08T09:11:14.561Z,-2.61
2023-01-08T09:12:13.793Z,-3.06
2023-01-08T09:13:13.688Z,-3.17
2023-01-08T09:14:13.676Z,-3.17
2023-01-08T09:15:13.677Z,-3.06
2023-01-08T09:16:13.770Z,-3.06
2023-01-08T09:17:13.672Z,-2.89
2023-01-08T09:18:15.859Z,-2.61
2023-01-08T09:19:13.685Z,-3.17
2023-01-08T09:20:13.701Z,-3.06
2023-01-08T09:21:13.678Z,-2.61
2023-01-08T09:22:13.698Z,-2.61
2023-01-08T09:23:13.694Z,-2.61
2023-01-08T09:24:13.691Z,-3.06
2023-01-08T09:25:13.702Z,-2.17
2023-01-08T09:26:13.691Z,-2.17
2023-01-08T09:27:13.717Z,-2.61
2023-01-08T09:28:13.804Z,-2.44
2023-01-08T09:29:13.708Z,-2.17
2023-01-08T09:30:13.703Z,-2
2023-01-08T09:31:13.751Z,-1.83
2023-01-08T09:32:13.706Z,-2.28
2023-01-08T09:33:13.703Z,-1.83
2023-01-08T09:34:13.709Z,-1.56
2023-01-08T09:35:13.704Z,-1.67
2023-01-08T09:36:13.721Z,-1.67
2023-01-08T09:37:13.724Z,-1.67
2023-01-08T09:38:13.718Z,-1.67
2023-01-08T09:39:13.712Z,-1.56
2023-01-08T09:40:13.714Z,-1.56
2023-01-08T09:41:13.721Z,-1.44
2023-01-08T09:42:13.725Z,-1.56
2023-01-08T09:43:13.719Z,-1.67
2023-01-08T09:44:13.750Z,-1.67
2023-01-08T09:45:13.735Z,-1.67
2023-01-08T09:46:13.785Z,-1.83
2023-01-08T09:47:13.730Z,-1.67
2023-01-08T09:48:13.733Z,-1.56
2023-01-08T09:49:13.723Z,-2
2023-01-08T09:50:13.716Z,-2
2023-01-08T09:51:13.729Z,-2.17
2023-01-08T09:52:13.735Z,-2.17
2023-01-08T09:53:13.733Z,-2.17
2023-01-08T09:54:13.722Z,-2.44
2023-01-08T09:55:13.742Z,-2.61
2023-01-08T09:56:13.724Z,-2.28
2023-01-08T09:57:13.742Z,-2
2023-01-08T09:58:13.737Z,-2.17
2023-01-08T09:59:13.724Z,-2.17
2023-01-08T10:00:13.849Z,-2.17
2023-01-08T10:01:13.883Z,-2.17
2023-01-08T10:02:13.850Z,-2.28
2023-01-08T10:03:13.732Z,-2
2023-01-08T10:04:13.755Z,-1.67
2023-01-08T10:05:13.757Z,-1.44
2023-01-08T10:06:13.743Z,-1.56
2023-01-08T10:07:13.746Z,-1.67
2023-01-08T10:08:13.731Z,-1.56
2023-01-08T10:09:13.750Z,-1.83
2023-01-08T10:10:13.739Z,-1.67
2023-01-08T10:11:13.748Z,-1.83
2023-01-08T10:12:13.742Z,-1.56
2023-01-08T10:13:13.742Z,-1.56
2023-01-08T10:14:13.736Z,-1.67
2023-01-08T10:15:13.737Z,-1.56
2023-01-08T10:16:13.830Z,-1.28
2023-01-08T10:17:13.769Z,-1.28
2023-01-08T10:18:13.743Z,-1.44
2023-01-08T10:19:13.746Z,-1.67
2023-01-08T10:20:13.751Z,-1.28
2023-01-08T10:21:13.745Z,-1.83
2023-01-08T10:22:13.746Z,-1.67
2023-01-08T10:23:13.756Z,-1.56
2023-01-08T10:24:13.758Z,-1.56
2023-01-08T10:25:13.753Z,-1.28
2023-01-08T10:26:13.754Z,-1.28
2023-01-08T10:27:13.757Z,-1.11
2023-01-08T10:28:13.749Z,-1.11
2023-01-08T10:29:13.747Z,-0.83
2023-01-08T10:30:13.767Z,-1
2023-01-08T10:31:13.769Z,-0.56
2023-01-08T10:32:13.870Z,-1.28
2023-01-08T10:33:13.771Z,-0.39
2023-01-08T10:34:13.763Z,-1.11
2023-01-08T10:35:13.757Z,-0.67
2023-01-08T10:36:13.754Z,-0.56
2023-01-08T10:37:13.794Z,-0.56
2023-01-08T10:38:13.761Z,-0.56
2023-01-08T10:39:13.759Z,-0.28
2023-01-08T10:40:13.760Z,-0.28
2023-01-08T10:41:13.767Z,-0.28
2023-01-08T10:42:13.760Z,-0.28
2023-01-08T10:43:13.772Z,-0.28
2023-01-08T10:44:13.763Z,0
2023-01-08T10:45:13.765Z,0.17
2023-01-08T10:46:13.760Z,0.17
2023-01-08T10:47:13.763Z,0.17
2023-01-08T10:48:13.789Z,0
2023-01-08T10:49:13.763Z,-0.17
2023-01-08T10:50:13.760Z,-0.17
2023-01-08T10:51:13.770Z,-0.67
2023-01-08T10:52:13.775Z,-0.39
2023-01-08T10:53:13.779Z,-0.28
2023-01-08T10:54:13.783Z,0
2023-01-08T10:55:13.769Z,0
2023-01-08T10:56:13.764Z,0.44
2023-01-08T10:57:13.774Z,0.44
2023-01-08T10:58:13.787Z,0
2023-01-08T10:59:13.773Z,0.17
2023-01-08T11:00:13.770Z,0.28
2023-01-08T11:01:13.887Z,0.89
2023-01-08T11:02:13.838Z,1.33
2023-01-08T11:03:13.784Z,1.33
2023-01-08T11:04:13.890Z,1.06
2023-01-08T11:05:13.780Z,0.72
2023-01-08T11:06:13.789Z,0.89
2023-01-08T11:07:13.774Z,0.89
2023-01-08T11:08:13.795Z,0.44
2023-01-08T11:09:13.787Z,0.72
2023-01-08T11:10:13.801Z,0.89
2023-01-08T11:11:13.779Z,0.89
2023-01-08T11:12:13.785Z,1.33
2023-01-08T11:13:13.805Z,0.89
2023-01-08T11:14:13.789Z,0.72
2023-01-08T11:15:13.786Z,0.72
2023-01-08T11:16:13.800Z,1.5
2023-01-08T11:17:13.786Z,1.33
2023-01-08T11:18:13.784Z,1.72
2023-01-08T11:19:13.782Z,2
2023-01-08T11:20:13.805Z,1.61
2023-01-08T11:21:13.788Z,1.33
2023-01-08T11:22:13.784Z,0.89
2023-01-08T11:23:13.781Z,0.89
2023-01-08T11:24:13.789Z,0.61
2023-01-08T11:25:14.112Z,0.61
2023-01-08T11:26:13.818Z,0.72
2023-01-08T11:27:13.778Z,0.89
2023-01-08T11:28:13.788Z,1.06
2023-01-08T11:29:13.803Z,0.89
2023-01-08T11:30:13.791Z,1.06
2023-01-08T11:31:13.885Z,0.89
2023-01-08T11:32:13.796Z,0.89
2023-01-08T11:33:13.782Z,0.89
2023-01-08T11:34:13.795Z,0.89
2023-01-08T11:35:13.793Z,0.61
2023-01-08T11:36:14.937Z,0.89
2023-01-08T11:37:13.797Z,1.06
2023-01-08T11:38:13.831Z,1.33
2023-01-08T11:39:13.795Z,1.33
2023-01-08T11:40:13.825Z,1.72
2023-01-08T11:41:13.790Z,1.33
2023-01-08T11:42:13.786Z,1.5
2023-01-08T11:43:13.819Z,1.61
2023-01-08T11:44:13.795Z,1.72
2023-01-08T11:45:13.794Z,1.72
2023-01-08T11:46:13.806Z,1.89
2023-01-08T11:47:13.842Z,2.17
2023-01-08T11:48:14.649Z,1.89
2023-01-08T11:49:13.793Z,2.28
2023-01-08T11:50:13.794Z,2.61
2023-01-08T11:51:13.798Z,2.17
2023-01-08T11:52:13.823Z,1.72
2023-01-08T11:53:13.796Z,1.89
2023-01-08T11:54:14.409Z,1.72
2023-01-08T11:55:13.803Z,1.5
2023-01-08T11:56:13.795Z,1.72
2023-01-08T11:57:13.798Z,1.72
2023-01-08T11:58:13.813Z,1.89
2023-01-08T11:59:13.788Z,1.72
2023-01-08T12:00:14.445Z,1.72
2023-01-08T12:01:13.808Z,1.5
2023-01-08T12:02:13.818Z,1.17
2023-01-08T12:03:13.838Z,1.17
2023-01-08T12:04:13.811Z,1.33
2023-01-08T12:05:13.803Z,1.5
2023-01-08T12:06:13.799Z,1.5
2023-01-08T12:07:13.807Z,1.33
2023-01-08T12:08:13.829Z,0.89
2023-01-08T12:09:13.810Z,1.17
2023-01-08T12:10:13.794Z,0.89
2023-01-08T12:11:13.799Z,0.89
2023-01-08T12:12:15.090Z,0.89
2023-01-08T12:13:13.796Z,1.17
2023-01-08T12:14:13.810Z,0.89
2023-01-08T12:15:13.798Z,0.89
2023-01-08T12:16:13.844Z,1.06
2023-01-08T12:17:13.802Z,0.72
2023-01-08T12:18:13.800Z,0.89
2023-01-08T12:19:13.822Z,1.61
2023-01-08T12:20:13.805Z,1.72
2023-01-08T12:21:13.797Z,2
2023-01-08T12:22:13.821Z,2
2023-01-08T12:23:13.814Z,2.28
2023-01-08T12:24:13.853Z,2.89
2023-01-08T12:25:13.811Z,2.72
2023-01-08T12:26:13.810Z,3.33
2023-01-08T12:27:13.816Z,3.44
2023-01-08T12:28:13.831Z,3.44
2023-01-08T12:29:13.833Z,3.83
2023-01-08T12:30:13.825Z,3.56
2023-01-08T12:31:13.874Z,3.83
2023-01-08T12:32:13.924Z,3.83
2023-01-08T12:33:13.832Z,3.72
2023-01-08T12:34:13.820Z,3.72
2023-01-08T12:35:13.824Z,3.83
2023-01-08T12:36:13.843Z,3.83
2023-01-08T12:37:13.834Z,3.72
2023-01-08T12:38:13.820Z,3.44
2023-01-08T12:39:13.829Z,3.33
2023-01-08T12:40:13.848Z,3.33
2023-01-08T12:41:13.836Z,3.17
2023-01-08T12:42:13.829Z,3.17
2023-01-08T12:43:13.824Z,2.89
2023-01-08T12:44:13.829Z,3
2023-01-08T12:45:13.843Z,2.89
2023-01-08T12:46:13.937Z,2.61
2023-01-08T12:47:13.838Z,2.44
2023-01-08T12:48:13.853Z,3
2023-01-08T12:49:13.859Z,3
2023-01-08T12:50:13.857Z,3
2023-01-08T12:51:13.858Z,3.17
2023-01-08T12:52:13.834Z,3.44
2023-01-08T12:53:13.849Z,3.33
2023-01-08T12:54:13.864Z,3.56
2023-01-08T12:55:13.843Z,3.33
2023-01-08T12:56:13.884Z,3.83
2023-01-08T12:57:13.845Z,3.83
2023-01-08T12:58:13.856Z,3.44
2023-01-08T12:59:13.846Z,3.56
2023-01-08T13:00:13.854Z,3.72
2023-01-08T13:01:13.986Z,3.44